KCEC

Jack Mc Namara Field Airport

Crescent City, California, USA
METAR KCEC 191611Z AUTO 19012KT 2 1/2SM RA BR OVC005 12/12 A3020 RMK AO2 P0008 T01220122
Observed Flight Rules
Jan-19 @ 16:11 UTC (29 minutes ago) Instrument Flight Rules
Wind Visibility Clouds Conditions
190° at 12 knots 2 1/2 miles
  • Overcast at 500' AGL
  • Rain
  • Mist
Temperatures Readings Precipitation
Current 12°C / 54°F
Dewpoint 12°C / 54°F
Humidity 100%
Altimeter 30.2" Hg
Pressure 1022.72 hPa
Elevation 17
Current Rain 0.08
METAR KCEC 191611Z AUTO 19012KT 2 1/2SM RA BR OVC005 12/12 A3020 RMK AO2 P0008 T01220122
Observed Flight Rules
Jan-19 @ 16:11 UTC
(29 minutes ago)
IFR
Wind Visibility
190° at 12 knots 2 1/2 miles
Clouds
  • Overcast at 500' AGL
Conditions
  • Rain
  • Mist
Temperature Dewpoint
12°C / 54°F 12°C / 54°F
Humidity Altimeter Pressure
100% 30.2" Hg 1022.72 hPa
Current Rain
0.08